Flight Track Log - Related Links

Times and Time Zones

All times are in EDT time to prevent confusion due to time zone crossing. See the SWA1969 flight status page for this flight to view local times or setup timezone preferences in your user account.


Time Position Orientation Groundspeed Altitude Reporting Facility
EDT Latitude Longitude Course Direction KTS MPH feet Rate Location/Type
Fri 11:33:31 AM 41.8000 -87.6833 90° East 192 221 3,200  Level Chicago TRACON
Fri 11:34:49 AM 41.8000 -87.5858 90° East 229 264 5,600 2,763 Climbing Chicago Center
Fri 11:35:50 AM 41.8278 -87.4656 73° East 278 320 9,600 3,756 Climbing Chicago Center
Fri 11:36:52 AM 41.8092 -87.3503 102° East 315 362 13,300 3,000 Climbing Chicago Center
Fri 11:37:54 AM 41.7889 -87.2172 102° East 350 403 15,800 2,585 Climbing Chicago Center
Fri 11:38:00 AM 41.7500 -86.9612 90° East  Level FlightAware Approximate
Fri 11:38:55 AM 41.7647 -87.0733 103° East 385 443 18,600  Level Chicago Center
Fri 11:39:57 AM 41.7650 -86.9231 90° East 402 463 21,300 2,565 Climbing Chicago Center
Fri 11:40:59 AM 41.7653 -86.7667 90° East 416 479 23,900 2,468 Climbing Chicago Center
Fri 11:42:01 AM 41.7664 -86.6008 89° East 436 502 26,400 2,244 Climbing Chicago Center
Fri 11:43:02 AM 41.7708 -86.4383 88° East 436 502 28,500 2,049 Climbing Chicago Center
Fri 11:44:04 AM 41.7997 -86.2442 79° East 445 512 30,600 1,790 Climbing Chicago Center
Fri 11:45:06 AM 41.8208 -86.0775 80° East 453 521 32,200 1,805 Climbing Chicago Center
Fri 11:46:07 AM 41.8433 -85.9083 80° East 457 526 34,300 1,854 Climbing Chicago Center
Fri 11:47:09 AM 41.8650 -85.7422 80° East 451 519 36,000 1,452 Climbing Chicago Center
Fri 11:48:11 AM 41.8861 -85.5767 80° East 446 513 37,300 1,065 Climbing Chicago Center
Fri 11:49:13 AM 41.9075 -85.4056 80° East 458 527 38,200 886 Climbing Chicago Center
Fri 11:49:39 AM 41.9178 -85.3333 79° East 459 528 38,600 558 Climbing Cleveland Center
Fri 11:50:39 AM 41.9394 -85.1619 80° East 465 535 39,000 200 Climbing Cleveland Center
Fri 11:51:39 AM 41.9608 -84.9872 81° East 465 535 39,000  Level Cleveland Center
Fri 11:52:39 AM 41.9819 -84.8156 81° East 465 535 39,000  Level Cleveland Center
Fri 11:53:39 AM 42.0006 -84.6464 82° East 465 535 39,000  Level Cleveland Center
Fri 11:54:39 AM 42.0192 -84.4714 82° East 465 535 39,000  Level Cleveland Center
Fri 11:55:39 AM 42.0414 -84.2992 80° East 465 535 39,000  Level Cleveland Center
Fri 11:56:39 AM 42.0600 -84.1072 82° East 465 535 39,000  Level Cleveland Center
Fri 11:57:39 AM 42.0778 -83.9319 82° East 465 535 39,000  Level Cleveland Center
Fri 11:58:39 AM 42.0997 -83.7511 81° East 470 541 39,000  Level Cleveland Center
Fri 11:59:39 AM 42.1147 -83.5783 83° East 470 541 39,000  Level Cleveland Center
Fri 12:00:39 PM 42.1361 -83.3972 81° East 483 556 39,000  Level Cleveland Center
Fri 12:01:39 PM 42.1550 -83.2161 82° East 483 556 39,000  Level Cleveland Center
Fri 12:02:39 PM 42.1731 -83.0514 82° East 490 564 39,000  Level Cleveland Center
Fri 12:03:39 PM 42.1936 -82.8672 81° East 490 564 39,000  Level Cleveland Center
Fri 12:04:39 PM 42.2117 -82.6831 82° East 495 570 39,000  Level Cleveland Center
Fri 12:05:39 PM 42.2275 -82.5011 83° East 495 570 39,000  Level Cleveland Center
Fri 12:06:39 PM 42.2469 -82.3139 82° East 495 570 39,000  Level Cleveland Center
Fri 12:07:39 PM 42.2642 -82.1319 83° East 495 570 39,000  Level Cleveland Center
Fri 12:08:39 PM 42.2833 -81.9472 82° East 500 575 39,000  Level Cleveland Center
Fri 12:09:39 PM 42.2997 -81.7678 83° East 493 567 39,000  Level Cleveland Center
Fri 12:10:39 PM 42.3183 -81.5689 83° East 487 560 39,000  Level Cleveland Center
Fri 12:11:39 PM 42.3325 -81.3808 84° East 482 555 39,000  Level Cleveland Center
Fri 12:12:39 PM 42.3522 -81.2069 81° East 482 555 39,000  Level Cleveland Center
Fri 12:13:39 PM 42.3656 -81.0244 84° East 481 554 39,000  Level Cleveland Center
Fri 12:14:39 PM 42.3786 -80.8417 84° East 481 554 39,000  Level Cleveland Center
Fri 12:15:39 PM 42.3956 -80.6619 83° East 481 554 39,000  Level Cleveland Center
Fri 12:16:39 PM 42.4081 -80.4819 85° East 481 554 39,000  Level Cleveland Center
Fri 12:17:39 PM 42.4244 -80.3019 83° East 481 554 39,000  Level Cleveland Center
Fri 12:18:39 PM 42.4364 -80.1386 84° East 481 554 39,000  Level Cleveland Center
Fri 12:19:39 PM 42.4503 -79.9528 84° East 481 554 39,000  Level Cleveland Center
Fri 12:20:39 PM 42.4656 -79.7472 84° East 487 560 39,000  Level Cleveland Center
Fri 12:21:39 PM 42.4828 -79.5669 83° East 487 560 39,000  Level Cleveland Center
Fri 12:22:39 PM 42.4956 -79.3836 85° East 487 560 39,000  Level Cleveland Center
Fri 12:23:39 PM 42.5061 -79.2003 85° East 482 555 39,000  Level Cleveland Center
Fri 12:24:39 PM 42.5206 -79.0169 84° East 482 555 39,000 -250 Level Cleveland Center
Fri 12:25:39 PM 42.5303 -78.8336 86° East 482 555 38,500 -750 Descending Cleveland Center
Fri 12:26:39 PM 42.5419 -78.6528 85° East 482 555 37,500 -500 Descending Cleveland Center
Fri 12:28:39 PM 42.5664 -78.2772 85° East 488 562 37,000 -167 Descending Cleveland Center
Fri 12:29:39 PM 42.5772 -78.0906 85° East 493 567 37,000  Level Cleveland Center
Fri 12:30:39 PM 42.5875 -77.9039 86° East 498 573 37,000  Level Cleveland Center
Fri 12:31:39 PM 42.5983 -77.7400 85° East 498 573 37,000  Level Cleveland Center
Fri 12:33:34 PM 42.6172 -77.3561 86° East 480 552 37,000  Level Boston Center
Fri 12:34:35 PM 42.6272 -77.1675 86° East 491 565 37,000  Level Boston Center
Fri 12:35:35 PM 42.6372 -76.9764 86° East 496 571 37,000  Level Boston Center
Fri 12:36:36 PM 42.6467 -76.7850 86° East 496 571 37,000  Level Boston Center
Fri 12:37:37 PM 42.6539 -76.5933 87° East 501 577 37,000  Level Boston Center
Fri 12:38:35 PM 42.6631 -76.3964 86° East 507 583 37,000  Level Boston Center
Fri 12:39:35 PM 42.6736 -76.2078 86° East 507 583 37,000  Level Boston Center
Fri 12:40:35 PM 42.6817 -76.0189 87° East 502 578 37,000  Level Boston Center
Fri 12:41:36 PM 42.6875 -75.8328 87° East 497 572 37,000  Level Boston Center
Fri 12:42:34 PM 42.6950 -75.6467 87° East 497 572 37,000  Level Boston Center
Fri 12:43:34 PM 42.6989 -75.4969 88° East 492 566 37,000 -496 Level Boston Center
Fri 12:44:35 PM 42.7064 -75.2967 87° East 492 566 36,000 -1,785 Descending Boston Center
Fri 12:45:35 PM 42.7128 -75.1133 87° East 492 566 33,400 -2,331 Descending Boston Center
Fri 12:46:36 PM 42.7192 -74.9300 87° East 492 566 31,300 -2,033 Descending Boston Center
Fri 12:47:36 PM 42.7250 -74.7519 87° East 481 554 29,300 -1,160 Descending Boston Center
Fri 12:48:35 PM 42.7306 -74.5769 87° East 467 537 29,000 -151 Descending Boston Center
Fri 12:49:35 PM 42.7339 -74.3906 89° East 473 544 29,000  Level Boston Center
Fri 12:50:36 PM 42.7369 -74.1956 89° East 489 563 29,000 -1,041 Level Boston Center
Fri 12:51:36 PM 42.7417 -74.0092 88° East 495 570 26,900 -2,400 Descending Boston Center
Fri 12:52:36 PM 42.7464 -73.8197 88° East 495 570 24,200 -1,881 Descending Boston Center
Fri 12:53:34 PM 42.7547 -73.6333 86° East 495 570 23,200 -1,008 Descending Boston Center
Fri 12:54:35 PM 42.7628 -73.4581 86° East 483 556 22,200 -984 Descending Boston Center
Fri 12:55:36 PM 42.7661 -73.2772 89° East 477 549 21,200 -1,008 Descending Boston Center
Fri 12:56:34 PM 42.7736 -73.0850 87° East 466 536 20,200 -1,068 Descending Boston Center
Fri 12:57:34 PM 42.7786 -72.9069 88° East 466 536 19,100 -595 Descending Boston Center
Fri 12:58:35 PM 42.7856 -72.7400 87° East 454 522 19,000 -738 Descending Boston Center
Fri 12:59:36 PM 42.7881 -72.5731 89° East 449 517 17,600 -4,959 Descending Boston Center
Fri 01:00:36 PM 42.7922 -72.4061 88° East 438 504 9,000 -2,949 Descending Boston Center
Fri 01:01:34 PM 42.7983 -72.2447 87° East 433 498 11,800 712 Climbing Boston Center
Fri 01:02:34 PM 42.8083 -72.1006 85° East 396 456 10,400 -1,150 Descending Boston Center
Fri 01:03:34 PM 42.8183 -71.9675 84° East 368 423 9,500 -1,041 Descending Boston Center
Fri 01:04:35 PM 42.8303 -71.8511 82° East 320 368 8,300 -1,190 Descending Boston Center
Fri 01:05:35 PM 42.8381 -71.7378 85° East 307 353 7,100 -1,339 Descending Boston Center
Fri 01:06:36 PM 42.8414 -71.6303 88° East 286 329 5,600 -1,311 Descending Boston Center
Fri 01:07:34 PM 42.8136 -71.5344 112° Southeast 270 311 4,500 -1,017 Descending Boston Center
Fri 01:08:34 PM 42.7919 -71.4469 109° East 251 289 3,600 -744 Descending Boston Center
Fri 01:09:35 PM 42.8228 -71.3956 51° Northeast 172 198 3,000 -843 Descending Boston Center
Fri 01:10:35 PM 42.8478 -71.3867 15° North 132 152 1,900 -1,041 Descending Boston Center
Fri 01:11:36 PM 42.8939 -71.4114 339° North 127 146 900 -706 Descending Boston Center
Fri 01:12:34 PM 42.9231 -71.4278 338° Northwest 132 152 500 4,119 Descending Boston Center
Fri 01:13:34 PM 42.9547 -71.4500 333° Northwest 132 152 9,000 4,250 Climbing Boston Center
Fri 01:14:34 PM 42.9861 -71.4694 336° Northwest 132 152 9,000  Level Boston Center
Fri 01:15:35 PM 43.0175 -71.4917 333° Northwest 132 152 9,000  Level Boston Center
Fri 01:16:37 PM 43.0364 -71.5028 337° Northwest 132 152 9,000  Level Boston Center

Login

Don't have an account? Register now (free) for customized features, flight alerts, and more!